Terminal Aerodrome Forecast
Issued by NWS Louisville, KY

Home | Current Version | Previous Version | Text Only | Print | Product List | Glossary On
Versions: 1 2 3 4 5 6 7 8 9 10 11 12 13
435
FTUS43 KLMK 220521
TAFSDF
TAF
KSDF 220521Z 2206/2312 34004KT P6SM SKC
      TEMPO 2209/2213 5SM BR
     FM221800 31010G18KT P6SM SCT060
     FM230000 VRB05KT P6SM FEW050=

USA.gov is the U.S. government's official web portal to all federal, state and local government web resources and services.